Time;durP1;ratioP1;P1;durP2;ratioP2;P2;SDS_P1;SDS_P2;PMS_P1;PMS_P2;Temp;Humidity;BMP_temperature;BMP_pressure;BME280_temperature;BME280_humidity;BME280_pressure;Samples;Min_cycle;Max_cycle;Signal;HPM_P1;HPM_P2
2023/10/25 00:01:29;;;;;;;25.15;11.57;;;;;;;;;;4929748;29;20102;-79
2023/10/25 00:03:56;;;;;;;21.95;10.32;;;;;;;;;;4957093;28;20448;-80
2023/10/25 00:06:21;;;;;;;23.33;10.20;;;;;;;;;;4967412;29;20238;-81
2023/10/25 00:08:48;;;;;;;27.52;10.50;;;;;;;;;;4980639;28;20054;-80
2023/10/25 00:11:13;;;;;;;21.13;10.20;;;;;;;;;;4977741;28;20038;-79
2023/10/25 00:13:39;;;;;;;24.35;10.00;;;;;;;;;;4980435;28;20109;-79
2023/10/25 00:16:08;;;;;;;24.45;10.52;;;;;;;;;;4985448;28;20059;-81
2023/10/25 00:18:34;;;;;;;29.13;10.10;;;;;;;;;;4960568;29;20063;-81
2023/10/25 00:21:04;;;;;;;30.80;10.38;;;;;;;;;;4930754;29;20070;-81
2023/10/25 00:23:30;;;;;;;20.05;9.68;;;;;;;;;;4952524;29;20058;-82
2023/10/25 00:25:56;;;;;;;17.92;8.40;;;;;;;;;;4933728;29;20027;-81
2023/10/25 00:28:23;;;;;;;19.17;8.43;;;;;;;;;;4949135;29;20020;-81
2023/10/25 00:30:53;;;;;;;24.25;9.63;;;;;;;;;;4936224;29;20031;-79
2023/10/25 00:33:25;;;;;;;21.20;7.95;;;;;;;;;;4936842;29;20058;-83
2023/10/25 00:35:50;;;;;;;14.68;7.93;;;;;;;;;;4933530;29;20062;-80
2023/10/25 00:38:16;;;;;;;21.25;7.82;;;;;;;;;;4918172;29;20323;-80
2023/10/25 00:40:42;;;;;;;16.50;8.70;;;;;;;;;;4934496;29;20031;-78
2023/10/25 00:43:22;;;;;;;20.67;7.65;;;;;;;;;;4938309;28;20062;-82
2023/10/25 00:46:11;;;;;;;15.38;8.32;;;;;;;;;;4925885;29;20514;-81
2023/10/25 00:48:43;;;;;;;14.93;7.10;;;;;;;;;;4952489;29;20090;-81
2023/10/25 00:51:11;;;;;;;20.60;7.60;;;;;;;;;;4927832;29;20131;-81
2023/10/25 00:53:42;;;;;;;16.77;7.50;;;;;;;;;;4934922;29;20437;-80
2023/10/25 00:56:11;;;;;;;19.85;7.85;;;;;;;;;;4951602;29;20062;-81
2023/10/25 00:58:41;;;;;;;19.42;8.10;;;;;;;;;;4952061;29;20023;-79
2023/10/25 01:01:11;;;;;;;16.55;8.30;;;;;;;;;;4935017;29;20441;-79
2023/10/25 01:03:41;;;;;;;21.80;9.55;;;;;;;;;;4935129;29;20050;-78
2023/10/25 01:06:10;;;;;;;21.48;8.00;;;;;;;;;;4934917;29;20035;-80
2023/10/25 01:08:42;;;;;;;19.98;8.48;;;;;;;;;;4952346;29;20047;-81
2023/10/25 01:11:13;;;;;;;23.45;8.90;;;;;;;;;;4943941;29;20038;-81
2023/10/25 01:13:41;;;;;;;23.35;8.57;;;;;;;;;;4934978;29;20031;-79
2023/10/25 01:16:10;;;;;;;28.38;9.82;;;;;;;;;;4940009;29;20031;-80
2023/10/25 01:18:36;;;;;;;17.13;8.32;;;;;;;;;;4946741;29;20027;-81
2023/10/25 01:21:04;;;;;;;13.68;7.03;;;;;;;;;;4957131;29;20022;-80
2023/10/25 01:23:30;;;;;;;23.05;7.57;;;;;;;;;;4958889;29;20066;-81
2023/10/25 01:25:57;;;;;;;18.48;8.05;;;;;;;;;;4923379;29;20030;-81
2023/10/25 01:28:24;;;;;;;26.70;8.68;;;;;;;;;;4941400;29;20075;-80
2023/10/25 01:30:50;;;;;;;19.65;8.43;;;;;;;;;;4966457;29;20019;-80
2023/10/25 01:33:18;;;;;;;20.38;8.05;;;;;;;;;;4975665;29;20035;-82
2023/10/25 01:35:50;;;;;;;21.02;9.23;;;;;;;;;;4939985;29;20026;-81
2023/10/25 01:38:19;;;;;;;18.10;8.13;;;;;;;;;;4957432;29;20031;-81
2023/10/25 01:40:45;;;;;;;17.30;7.95;;;;;;;;;;4911259;29;20031;-80
2023/10/25 01:43:12;;;;;;;17.23;8.38;;;;;;;;;;4941256;29;20121;-82
2023/10/25 01:45:38;;;;;;;17.98;9.93;;;;;;;;;;4939098;29;20031;-80
2023/10/25 01:48:04;;;;;;;20.70;9.68;;;;;;;;;;4958973;28;20480;-82
2023/10/25 01:50:34;;;;;;;20.30;10.30;;;;;;;;;;4939487;29;20027;-81
2023/10/25 01:53:02;;;;;;;24.02;10.52;;;;;;;;;;4924462;29;20086;-81
2023/10/25 01:55:28;;;;;;;24.42;11.48;;;;;;;;;;4944400;29;20046;-81
2023/10/25 01:57:55;;;;;;;22.35;10.63;;;;;;;;;;4941012;29;20114;-82
2023/10/25 02:00:21;;;;;;;24.90;11.57;;;;;;;;;;4929802;29;20065;-81
2023/10/25 02:02:51;;;;;;;26.65;11.95;;;;;;;;;;4929130;29;20083;-81
2023/10/25 02:05:17;;;;;;;24.60;11.57;;;;;;;;;;4941386;29;20036;-81
2023/10/25 02:07:50;;;;;;;22.73;11.02;;;;;;;;;;4959344;29;20039;-80
2023/10/25 02:10:18;;;;;;;22.23;11.55;;;;;;;;;;4947123;29;20026;-81
2023/10/25 02:12:49;;;;;;;24.23;12.38;;;;;;;;;;4949348;29;20032;-82
2023/10/25 02:15:16;;;;;;;21.75;11.40;;;;;;;;;;4948238;28;20075;-82
2023/10/25 02:17:45;;;;;;;22.17;12.13;;;;;;;;;;4929766;29;20023;-82
2023/10/25 02:20:12;;;;;;;24.85;12.20;;;;;;;;;;4946113;29;20127;-82
2023/10/25 02:22:37;;;;;;;27.50;12.23;;;;;;;;;;4942964;29;20517;-80
2023/10/25 02:25:09;;;;;;;30.25;13.20;;;;;;;;;;4919322;29;20046;-81
2023/10/25 02:27:35;;;;;;;26.52;13.65;;;;;;;;;;4935914;29;20028;-81
2023/10/25 02:30:00;;;;;;;33.03;14.10;;;;;;;;;;4937520;29;20393;-81
2023/10/25 02:32:29;;;;;;;28.88;13.80;;;;;;;;;;4921636;29;20047;-80
2023/10/25 02:34:56;;;;;;;31.88;12.75;;;;;;;;;;4924547;29;20035;-81
2023/10/25 02:37:24;;;;;;;25.48;12.93;;;;;;;;;;4924770;29;20055;-80
2023/10/25 02:39:49;;;;;;;31.45;14.15;;;;;;;;;;4939629;29;20032;-81
2023/10/25 02:42:17;;;;;;;31.38;14.35;;;;;;;;;;4937688;29;20041;-80
2023/10/25 02:44:43;;;;;;;30.65;12.55;;;;;;;;;;4941835;29;20492;-81
2023/10/25 02:47:09;;;;;;;25.27;12.05;;;;;;;;;;4930826;29;20050;-82
2023/10/25 02:49:37;;;;;;;27.92;12.70;;;;;;;;;;4956031;29;20071;-81
2023/10/25 02:52:03;;;;;;;29.23;12.35;;;;;;;;;;4952986;29;20062;-82
2023/10/25 02:54:29;;;;;;;22.65;11.88;;;;;;;;;;4966294;29;20117;-81
2023/10/25 02:57:00;;;;;;;20.60;12.32;;;;;;;;;;4932087;29;20122;-82
2023/10/25 02:59:30;;;;;;;20.58;11.75;;;;;;;;;;4934490;29;20043;-82
2023/10/25 03:01:56;;;;;;;26.83;12.43;;;;;;;;;;4951364;29;20122;-81
2023/10/25 03:04:23;;;;;;;21.80;11.02;;;;;;;;;;4950527;29;20027;-82
2023/10/25 03:06:48;;;;;;;24.50;11.32;;;;;;;;;;4928966;29;20044;-81
2023/10/25 03:09:15;;;;;;;21.75;9.38;;;;;;;;;;4944865;29;20030;-82
2023/10/25 03:11:41;;;;;;;21.30;9.68;;;;;;;;;;4938761;29;20048;-82
2023/10/25 03:14:08;;;;;;;18.33;8.75;;;;;;;;;;4960535;29;20515;-82
2023/10/25 03:16:36;;;;;;;24.42;10.07;;;;;;;;;;4953123;29;20043;-82
2023/10/25 03:19:03;;;;;;;22.25;8.38;;;;;;;;;;4969454;29;20019;-81
2023/10/25 03:21:29;;;;;;;20.48;8.38;;;;;;;;;;4971714;28;20106;-82
2023/10/25 03:23:55;;;;;;;23.95;9.18;;;;;;;;;;4958558;29;20117;-81
2023/10/25 03:26:22;;;;;;;21.77;8.00;;;;;;;;;;4940980;29;20035;-81
2023/10/25 03:28:50;;;;;;;20.20;7.30;;;;;;;;;;4959692;29;20035;-81
2023/10/25 03:31:18;;;;;;;18.55;6.70;;;;;;;;;;4978009;28;20038;-82
2023/10/25 03:33:45;;;;;;;21.27;7.70;;;;;;;;;;4976064;28;20054;-80
2023/10/25 03:36:13;;;;;;;27.33;9.02;;;;;;;;;;4967842;29;20400;-82
2023/10/25 03:38:39;;;;;;;29.30;10.32;;;;;;;;;;4928455;29;20035;-80
2023/10/25 03:41:08;;;;;;;28.75;11.68;;;;;;;;;;4942755;29;20043;-79
2023/10/25 03:43:35;;;;;;;47.63;12.60;;;;;;;;;;4961140;29;20030;-79
2023/10/25 03:46:08;;;;;;;33.50;12.00;;;;;;;;;;4965080;29;20035;-80
2023/10/25 03:48:38;;;;;;;39.72;13.98;;;;;;;;;;4942658;29;20039;-81
2023/10/25 03:51:06;;;;;;;30.50;13.15;;;;;;;;;;4941328;29;20034;-80
2023/10/25 03:53:39;;;;;;;25.13;12.02;;;;;;;;;;4923733;29;20042;-81
2023/10/25 03:56:05;;;;;;;34.15;13.82;;;;;;;;;;4943318;29;20087;-80
2023/10/25 03:58:31;;;;;;;29.67;11.57;;;;;;;;;;4940562;29;20402;-81
2023/10/25 04:01:00;;;;;;;32.47;12.43;;;;;;;;;;4923038;29;20046;-81
2023/10/25 04:03:27;;;;;;;41.58;14.52;;;;;;;;;;4938863;29;20075;-80
2023/10/25 04:05:53;;;;;;;30.33;12.73;;;;;;;;;;4929406;29;20024;-80
2023/10/25 04:08:23;;;;;;;27.55;12.75;;;;;;;;;;4961426;28;20035;-80
2023/10/25 04:10:57;;;;;;;27.83;12.90;;;;;;;;;;4942463;29;20051;-80
2023/10/25 04:13:27;;;;;;;27.13;12.23;;;;;;;;;;4946629;29;20040;-81
2023/10/25 04:16:04;;;;;;;30.40;11.40;;;;;;;;;;4954872;29;20035;-81
2023/10/25 04:18:31;;;;;;;26.60;11.00;;;;;;;;;;4953776;29;20031;-81
2023/10/25 04:21:00;;;;;;;31.05;10.57;;;;;;;;;;4966866;29;20022;-81
2023/10/25 04:23:30;;;;;;;27.80;11.10;;;;;;;;;;4943734;29;20045;-81
2023/10/25 04:26:12;;;;;;;25.38;11.30;;;;;;;;;;4941331;28;20042;-80
2023/10/25 04:28:41;;;;;;;25.52;11.35;;;;;;;;;;4952756;29;20039;-81
2023/10/25 04:31:07;;;;;;;25.08;10.85;;;;;;;;;;4956016;28;20034;-81
2023/10/25 04:33:33;;;;;;;23.52;9.93;;;;;;;;;;4942866;29;20031;-80
2023/10/25 04:35:59;;;;;;;30.30;11.57;;;;;;;;;;4958631;29;20428;-81
2023/10/25 04:38:27;;;;;;;32.25;10.63;;;;;;;;;;4957950;29;20115;-81
2023/10/25 04:40:53;;;;;;;20.58;9.20;;;;;;;;;;4959021;29;20023;-82
2023/10/25 04:43:20;;;;;;;29.48;10.63;;;;;;;;;;4957801;29;20229;-81
2023/10/25 04:45:47;;;;;;;28.10;10.90;;;;;;;;;;4943081;29;20034;-82
2023/10/25 04:48:17;;;;;;;28.35;10.52;;;;;;;;;;4972586;29;20030;-79
2023/10/25 04:50:43;;;;;;;37.53;11.05;;;;;;;;;;4969887;29;20043;-80
2023/10/25 04:53:12;;;;;;;26.42;10.68;;;;;;;;;;4948409;29;20122;-80
2023/10/25 04:55:43;;;;;;;40.97;12.05;;;;;;;;;;4941298;29;20071;-81
2023/10/25 04:58:09;;;;;;;41.13;14.85;;;;;;;;;;4939483;29;20039;-81
2023/10/25 05:00:34;;;;;;;36.03;13.10;;;;;;;;;;4956127;28;20038;-81
2023/10/25 05:03:10;;;;;;;32.13;13.73;;;;;;;;;;4940818;29;20043;-81
2023/10/25 05:05:40;;;;;;;47.83;15.48;;;;;;;;;;4942444;29;20042;-75
2023/10/25 05:08:08;;;;;;;31.30;13.02;;;;;;;;;;4954344;29;20109;-76
2023/10/25 05:10:35;;;;;;;34.80;13.20;;;;;;;;;;4954086;28;20138;-77
2023/10/25 05:13:01;;;;;;;25.35;11.50;;;;;;;;;;4952681;29;20035;-77
2023/10/25 05:15:29;;;;;;;22.17;10.85;;;;;;;;;;4954673;29;20066;-76
2023/10/25 05:17:56;;;;;;;35.67;14.60;;;;;;;;;;4953339;29;20113;-78
2023/10/25 05:20:22;;;;;;;28.55;13.43;;;;;;;;;;4943998;29;20035;-78
2023/10/25 05:22:51;;;;;;;26.20;12.88;;;;;;;;;;4955193;28;20050;-78
2023/10/25 05:25:17;;;;;;;37.88;13.30;;;;;;;;;;4939611;29;20174;-78
2023/10/25 05:27:45;;;;;;;27.30;11.80;;;;;;;;;;4952825;29;20027;-79
2023/10/25 05:30:14;;;;;;;27.95;10.82;;;;;;;;;;4936831;29;20044;-79
2023/10/25 05:32:45;;;;;;;24.58;10.70;;;;;;;;;;4953804;29;20114;-78
2023/10/25 05:35:12;;;;;;;25.02;10.57;;;;;;;;;;4953897;29;20027;-78
2023/10/25 05:37:38;;;;;;;25.75;10.13;;;;;;;;;;4953718;29;20023;-78
2023/10/25 05:40:06;;;;;;;23.88;9.88;;;;;;;;;;4936673;29;20449;-78
2023/10/25 05:42:44;;;;;;;24.60;9.80;;;;;;;;;;4953395;29;20063;-78
2023/10/25 05:45:11;;;;;;;22.88;10.77;;;;;;;;;;4953798;29;20032;-78
2023/10/25 05:47:37;;;;;;;20.70;10.93;;;;;;;;;;4952090;29;20500;-78
2023/10/25 05:50:03;;;;;;;37.40;12.07;;;;;;;;;;4954027;29;20047;-78
2023/10/25 05:52:30;;;;;;;31.98;9.98;;;;;;;;;;4953982;28;20054;-78
2023/10/25 05:54:58;;;;;;;39.63;12.80;;;;;;;;;;4952617;29;20078;-78
2023/10/25 05:57:25;;;;;;;34.53;11.30;;;;;;;;;;4955412;29;20039;-78
2023/10/25 05:59:51;;;;;;;26.17;11.05;;;;;;;;;;4941359;29;20106;-79
2023/10/25 06:02:22;;;;;;;41.20;11.35;;;;;;;;;;4960528;29;20121;-78
2023/10/25 06:04:50;;;;;;;32.00;11.32;;;;;;;;;;4942196;29;20094;-78
2023/10/25 06:07:16;;;;;;;31.50;11.27;;;;;;;;;;4941802;29;20027;-78
2023/10/25 06:09:42;;;;;;;37.65;11.40;;;;;;;;;;4937732;29;20039;-78
2023/10/25 06:12:10;;;;;;;21.23;10.95;;;;;;;;;;4936790;29;20064;-79
2023/10/25 06:14:37;;;;;;;23.65;10.15;;;;;;;;;;4953257;29;20102;-79
2023/10/25 06:17:02;;;;;;;26.73;11.43;;;;;;;;;;4953425;29;20074;-77
2023/10/25 06:19:29;;;;;;;33.05;12.20;;;;;;;;;;4935876;29;20055;-78
2023/10/25 06:21:57;;;;;;;24.67;10.70;;;;;;;;;;4953270;29;20494;-78
2023/10/25 06:24:25;;;;;;;24.42;10.68;;;;;;;;;;4951956;29;20099;-79
2023/10/25 06:26:51;;;;;;;30.40;11.73;;;;;;;;;;4952806;29;20039;-78
2023/10/25 06:29:17;;;;;;;26.65;10.23;;;;;;;;;;4953165;29;20579;-79
2023/10/25 06:31:45;;;;;;;28.38;10.55;;;;;;;;;;4952276;29;20046;-79
2023/10/25 06:34:11;;;;;;;23.65;10.07;;;;;;;;;;4954739;28;20466;-78
2023/10/25 06:36:38;;;;;;;35.88;10.70;;;;;;;;;;4957041;29;20369;-76
2023/10/25 06:39:07;;;;;;;36.78;9.80;;;;;;;;;;4956717;29;20410;-80
2023/10/25 06:41:34;;;;;;;26.60;8.98;;;;;;;;;;4939448;29;20054;-78
2023/10/25 06:44:05;;;;;;;27.23;9.82;;;;;;;;;;4957615;29;20413;-78
2023/10/25 06:46:32;;;;;;;19.98;9.07;;;;;;;;;;4924300;29;20462;-78
2023/10/25 06:48:59;;;;;;;20.02;7.72;;;;;;;;;;4939924;29;20492;-79
2023/10/25 06:51:27;;;;;;;26.40;9.15;;;;;;;;;;4939291;29;20043;-79
2023/10/25 06:53:53;;;;;;;16.52;8.77;;;;;;;;;;4939313;29;20063;-77
2023/10/25 06:56:20;;;;;;;22.40;8.55;;;;;;;;;;4939177;29;20460;-76
2023/10/25 06:58:46;;;;;;;29.83;9.90;;;;;;;;;;4939077;29;20115;-76
2023/10/25 07:01:15;;;;;;;20.50;8.23;;;;;;;;;;4938985;29;20477;-76
2023/10/25 07:03:45;;;;;;;19.15;9.02;;;;;;;;;;4955944;29;20027;-73
2023/10/25 07:06:15;;;;;;;21.92;9.40;;;;;;;;;;4956002;29;20051;-78
2023/10/25 07:08:42;;;;;;;24.77;9.27;;;;;;;;;;4955534;29;20126;-76
2023/10/25 07:11:08;;;;;;;26.88;9.02;;;;;;;;;;4955721;29;20073;-75
2023/10/25 07:13:34;;;;;;;31.73;8.55;;;;;;;;;;4956075;29;20074;-77
2023/10/25 07:16:00;;;;;;;26.58;9.68;;;;;;;;;;4955671;29;20090;-78
2023/10/25 07:18:28;;;;;;;27.05;9.40;;;;;;;;;;4955344;29;20054;-76
2023/10/25 07:20:54;;;;;;;28.63;8.52;;;;;;;;;;4955561;29;20485;-76
2023/10/25 07:23:20;;;;;;;24.75;8.52;;;;;;;;;;4955940;29;20130;-77
2023/10/25 07:25:45;;;;;;;20.00;8.93;;;;;;;;;;4956078;29;20058;-77
2023/10/25 07:28:14;;;;;;;22.20;8.38;;;;;;;;;;4955760;29;20046;-74
2023/10/25 07:30:40;;;;;;;23.10;8.27;;;;;;;;;;4939449;29;20106;-74
2023/10/25 07:33:07;;;;;;;22.40;8.82;;;;;;;;;;4955906;29;20434;-77
2023/10/25 07:35:32;;;;;;;28.40;8.57;;;;;;;;;;4955994;29;20102;-77
2023/10/25 07:37:58;;;;;;;19.55;8.35;;;;;;;;;;4937804;29;20450;-77
2023/10/25 07:40:24;;;;;;;20.02;7.82;;;;;;;;;;4938124;29;20022;-77
2023/10/25 07:42:50;;;;;;;17.02;7.45;;;;;;;;;;4955534;29;20490;-77
2023/10/25 07:45:17;;;;;;;26.00;10.18;;;;;;;;;;4955085;28;20037;-78
2023/10/25 07:47:44;;;;;;;31.05;8.50;;;;;;;;;;4938368;29;20182;-77
2023/10/25 07:50:10;;;;;;;16.60;7.30;;;;;;;;;;4955378;29;20027;-76
2023/10/25 07:52:36;;;;;;;19.25;6.80;;;;;;;;;;4922495;29;20093;-77
2023/10/25 07:55:03;;;;;;;18.50;6.85;;;;;;;;;;4937940;29;20043;-78
2023/10/25 07:57:30;;;;;;;20.55;7.15;;;;;;;;;;4955146;29;20035;-78
2023/10/25 07:59:56;;;;;;;17.40;6.90;;;;;;;;;;4952407;29;20479;-77
2023/10/25 08:02:22;;;;;;;19.80;7.28;;;;;;;;;;4954145;28;20046;-79
2023/10/25 08:04:47;;;;;;;27.40;8.02;;;;;;;;;;4955039;29;20404;-77
2023/10/25 08:07:13;;;;;;;25.88;8.25;;;;;;;;;;4937027;29;20039;-77
2023/10/25 08:09:42;;;;;;;33.13;7.65;;;;;;;;;;4954435;29;20039;-77
2023/10/25 08:12:09;;;;;;;18.23;7.20;;;;;;;;;;4954944;29;20035;-76
2023/10/25 08:14:35;;;;;;;23.13;8.35;;;;;;;;;;4954954;29;20046;-77
2023/10/25 08:17:03;;;;;;;22.00;8.25;;;;;;;;;;4937159;29;20440;-76
2023/10/25 08:19:30;;;;;;;23.20;8.88;;;;;;;;;;4954410;29;20024;-78
2023/10/25 08:21:56;;;;;;;19.48;7.70;;;;;;;;;;4954412;29;20102;-76
2023/10/25 08:24:23;;;;;;;29.80;8.90;;;;;;;;;;4954390;29;20027;-77
2023/10/25 08:26:49;;;;;;;26.25;8.75;;;;;;;;;;4954554;29;20066;-77
2023/10/25 08:29:15;;;;;;;22.75;9.43;;;;;;;;;;4954073;29;20046;-78
2023/10/25 08:31:45;;;;;;;24.38;8.50;;;;;;;;;;4954206;28;20027;-75
2023/10/25 08:34:11;;;;;;;18.77;9.27;;;;;;;;;;4954384;29;20085;-76
2023/10/25 08:36:39;;;;;;;27.42;8.90;;;;;;;;;;4954712;29;20462;-77
2023/10/25 08:39:04;;;;;;;23.38;8.73;;;;;;;;;;4954618;29;20178;-77
2023/10/25 08:41:31;;;;;;;25.90;9.00;;;;;;;;;;4954742;29;20505;-78
2023/10/25 08:43:58;;;;;;;21.08;8.30;;;;;;;;;;4936958;29;20029;-77
2023/10/25 08:46:27;;;;;;;19.58;8.60;;;;;;;;;;4937253;29;20039;-76
2023/10/25 08:48:55;;;;;;;29.80;9.07;;;;;;;;;;4953980;29;20108;-77
2023/10/25 08:51:21;;;;;;;25.77;9.68;;;;;;;;;;4954606;29;20038;-77
2023/10/25 08:53:50;;;;;;;21.98;8.52;;;;;;;;;;4954165;29;20094;-75
2023/10/25 08:56:16;;;;;;;23.33;9.23;;;;;;;;;;4935854;29;20465;-76
2023/10/25 08:58:41;;;;;;;21.63;7.72;;;;;;;;;;4954147;29;20109;-77
2023/10/25 09:01:07;;;;;;;22.08;7.80;;;;;;;;;;4954461;28;20070;-75
2023/10/25 09:03:33;;;;;;;22.52;8.43;;;;;;;;;;4953720;29;20377;-77
2023/10/25 09:06:03;;;;;;;23.90;8.38;;;;;;;;;;4953843;29;20047;-77
2023/10/25 09:08:31;;;;;;;31.40;8.65;;;;;;;;;;4953670;29;20050;-77
2023/10/25 09:11:01;;;;;;;30.50;8.18;;;;;;;;;;4953645;29;20113;-75
2023/10/25 09:13:28;;;;;;;20.30;7.85;;;;;;;;;;4953101;29;20126;-76
2023/10/25 09:16:11;;;;;;;23.40;8.55;;;;;;;;;;4936370;29;20035;-77
2023/10/25 09:18:38;;;;;;;25.67;8.93;;;;;;;;;;4953615;29;20118;-78
2023/10/25 09:21:05;;;;;;;17.77;7.85;;;;;;;;;;4953710;29;20031;-76
2023/10/25 09:23:35;;;;;;;26.98;8.88;;;;;;;;;;4953397;29;20049;-75
2023/10/25 09:26:14;;;;;;;21.70;8.75;;;;;;;;;;4953212;29;20047;-75
2023/10/25 09:28:45;;;;;;;18.90;7.50;;;;;;;;;;4953137;29;20489;-76
2023/10/25 09:31:25;;;;;;;22.55;8.38;;;;;;;;;;4953549;29;20440;-74
2023/10/25 09:33:51;;;;;;;23.15;8.48;;;;;;;;;;4953479;29;20035;-74
2023/10/25 09:36:19;;;;;;;19.30;8.73;;;;;;;;;;4953546;29;20093;-75
2023/10/25 09:38:46;;;;;;;20.83;7.75;;;;;;;;;;4953830;29;20405;-74
2023/10/25 09:41:15;;;;;;;22.02;7.70;;;;;;;;;;4953651;29;20063;-75
2023/10/25 09:43:49;;;;;;;25.52;8.35;;;;;;;;;;4952715;29;20174;-73
2023/10/25 09:46:19;;;;;;;15.25;7.50;;;;;;;;;;4936735;29;20151;-74
2023/10/25 09:48:53;;;;;;;20.02;7.40;;;;;;;;;;4953455;28;20039;-74
2023/10/25 09:51:42;;;;;;;;;;;;;;;;;;4953805;29;20149;-74
2023/10/25 09:54:13;;;;;;;24.67;7.97;;;;;;;;;;4950234;28;19925;-72
2023/10/25 09:56:40;;;;;;;24.45;7.43;;;;;;;;;;4953055;29;20035;-74
2023/10/25 09:59:10;;;;;;;23.95;7.97;;;;;;;;;;4953131;29;20034;-75
2023/10/25 10:01:38;;;;;;;23.45;7.47;;;;;;;;;;4953082;29;20502;-73
2023/10/25 10:04:19;;;;;;;21.60;6.88;;;;;;;;;;4952999;29;20389;-74
2023/10/25 10:07:17;;;;;;;27.10;6.47;;;;;;;;;;4953051;29;20050;-74
2023/10/25 10:10:23;;;;;;;22.85;7.00;;;;;;;;;;4956511;29;20062;-73
2023/10/25 10:12:49;;;;;;;20.02;6.05;;;;;;;;;;4957122;29;20043;-76
2023/10/25 10:15:16;;;;;;;21.17;6.35;;;;;;;;;;4956672;28;20055;-75
2023/10/25 10:17:43;;;;;;;20.15;6.72;;;;;;;;;;4957456;29;20039;-76
2023/10/25 10:20:23;;;;;;;20.45;7.47;;;;;;;;;;4939534;29;20121;-77
2023/10/25 10:23:08;;;;;;;25.08;7.32;;;;;;;;;;4956734;29;20062;-74
2023/10/25 10:25:49;;;;;;;22.13;6.40;;;;;;;;;;4956648;29;20142;-75
2023/10/25 10:28:15;;;;;;;18.95;6.45;;;;;;;;;;4956311;29;20075;-75
2023/10/25 10:30:41;;;;;;;18.45;5.93;;;;;;;;;;4956791;29;20059;-73
2023/10/25 10:33:12;;;;;;;25.77;6.75;;;;;;;;;;4957794;29;20042;-74
2023/10/25 10:35:48;;;;;;;17.60;6.90;;;;;;;;;;4957364;29;20187;-74
2023/10/25 10:38:14;;;;;;;22.50;6.28;;;;;;;;;;4957730;29;20043;-75
2023/10/25 10:40:39;;;;;;;23.42;6.90;;;;;;;;;;4957577;29;20025;-73
2023/10/25 10:43:07;;;;;;;25.63;5.65;;;;;;;;;;4957230;29;20071;-74
2023/10/25 10:45:33;;;;;;;20.27;6.05;;;;;;;;;;4956315;29;20027;-74
2023/10/25 10:48:16;;;;;;;19.48;5.53;;;;;;;;;;4956305;29;20401;-74
2023/10/25 10:50:41;;;;;;;14.88;5.40;;;;;;;;;;4956350;29;20126;-77
2023/10/25 10:53:07;;;;;;;22.45;6.85;;;;;;;;;;4956133;29;20404;-75
2023/10/25 10:55:33;;;;;;;18.98;6.20;;;;;;;;;;4955711;29;20102;-76
2023/10/25 10:57:58;;;;;;;19.23;5.93;;;;;;;;;;4955025;29;20034;-75
2023/10/25 11:00:27;;;;;;;15.68;5.90;;;;;;;;;;4937606;29;20047;-75
2023/10/25 11:02:53;;;;;;;17.75;4.75;;;;;;;;;;4938969;29;20082;-75
2023/10/25 11:05:23;;;;;;;31.13;7.18;;;;;;;;;;4938157;29;20485;-73
2023/10/25 11:07:50;;;;;;;17.58;6.53;;;;;;;;;;4955959;29;20054;-75
2023/10/25 11:10:16;;;;;;;23.52;6.68;;;;;;;;;;4956578;29;20050;-77
2023/10/25 11:12:43;;;;;;;15.25;5.72;;;;;;;;;;4938809;29;20019;-75
2023/10/25 11:15:10;;;;;;;21.30;6.80;;;;;;;;;;4956279;29;20101;-76
2023/10/25 11:17:37;;;;;;;24.33;7.63;;;;;;;;;;4955862;29;20027;-75
2023/10/25 11:20:05;;;;;;;22.65;6.43;;;;;;;;;;4954339;28;20059;-76
2023/10/25 11:22:35;;;;;;;18.20;5.50;;;;;;;;;;4956475;29;20030;-75
2023/10/25 11:25:07;;;;;;;22.60;6.60;;;;;;;;;;4955989;29;20078;-72
2023/10/25 11:27:35;;;;;;;19.48;5.82;;;;;;;;;;4955513;29;20113;-73
2023/10/25 11:30:01;;;;;;;19.90;6.38;;;;;;;;;;4956174;29;20481;-74
2023/10/25 11:32:31;;;;;;;21.33;6.80;;;;;;;;;;4955337;29;20046;-75
2023/10/25 11:34:59;;;;;;;21.33;6.00;;;;;;;;;;4955583;29;20035;-73
2023/10/25 11:37:26;;;;;;;23.63;5.70;;;;;;;;;;4955861;29;20031;-74
2023/10/25 11:40:01;;;;;;;27.70;7.10;;;;;;;;;;4938663;29;20114;-72
2023/10/25 11:42:32;;;;;;;24.25;5.95;;;;;;;;;;4955218;29;20464;-72
2023/10/25 11:45:03;;;;;;;30.23;7.13;;;;;;;;;;4955606;28;20074;-73
2023/10/25 11:47:31;;;;;;;20.75;6.13;;;;;;;;;;4955351;28;20114;-73
2023/10/25 11:50:01;;;;;;;39.28;7.70;;;;;;;;;;4954351;29;20497;-74
2023/10/25 11:52:29;;;;;;;28.00;7.45;;;;;;;;;;4949619;28;20409;-74
2023/10/25 11:54:56;;;;;;;25.95;6.40;;;;;;;;;;4937642;29;20085;-73
2023/10/25 11:57:28;;;;;;;25.95;6.60;;;;;;;;;;4954562;29;20027;-74
2023/10/25 11:59:54;;;;;;;13.57;5.70;;;;;;;;;;4954182;28;20026;-76
2023/10/25 12:02:21;;;;;;;23.00;6.60;;;;;;;;;;4954650;29;20391;-77
2023/10/25 12:04:48;;;;;;;30.65;6.88;;;;;;;;;;4954067;29;20107;-77
2023/10/25 12:07:15;;;;;;;38.22;8.30;;;;;;;;;;4954081;29;20049;-78
2023/10/25 12:09:46;;;;;;;33.22;6.50;;;;;;;;;;4953103;28;20492;-77
2023/10/25 12:12:12;;;;;;;20.70;6.50;;;;;;;;;;4955397;29;20130;-76
2023/10/25 12:14:39;;;;;;;27.08;6.10;;;;;;;;;;4936362;29;20114;-76
2023/10/25 12:17:06;;;;;;;25.55;7.72;;;;;;;;;;4953483;29;20031;-78
2023/10/25 12:19:36;;;;;;;27.90;6.55;;;;;;;;;;4954648;28;20042;-77
2023/10/25 12:22:13;;;;;;;22.48;6.30;;;;;;;;;;4936541;28;20146;-78
2023/10/25 12:24:40;;;;;;;14.15;5.43;;;;;;;;;;4952617;29;20341;-76
2023/10/25 12:27:07;;;;;;;25.48;5.85;;;;;;;;;;4954206;28;20031;-77
2023/10/25 12:29:35;;;;;;;25.17;6.45;;;;;;;;;;4953737;29;20055;-77
2023/10/25 12:32:03;;;;;;;25.17;5.63;;;;;;;;;;4936489;28;20039;-77
2023/10/25 12:34:29;;;;;;;22.33;5.30;;;;;;;;;;4937293;28;20043;-77
2023/10/25 12:36:55;;;;;;;20.10;5.68;;;;;;;;;;4936914;29;20035;-76
2023/10/25 12:39:20;;;;;;;19.40;5.95;;;;;;;;;;4954477;28;20189;-76
2023/10/25 12:41:47;;;;;;;21.63;5.50;;;;;;;;;;4954561;28;20031;-77
2023/10/25 12:44:13;;;;;;;21.85;6.35;;;;;;;;;;4954846;29;20035;-77
2023/10/25 12:46:39;;;;;;;29.23;6.68;;;;;;;;;;4937799;29;20037;-77
2023/10/25 12:49:06;;;;;;;34.13;6.53;;;;;;;;;;4955094;28;20111;-77
2023/10/25 12:51:33;;;;;;;28.52;6.30;;;;;;;;;;4936895;29;20062;-77
2023/10/25 12:53:59;;;;;;;27.38;7.10;;;;;;;;;;4954432;29;20062;-78
2023/10/25 12:56:26;;;;;;;34.58;7.60;;;;;;;;;;4936309;29;20019;-77
2023/10/25 12:58:54;;;;;;;21.48;6.05;;;;;;;;;;4952366;29;20035;-77
2023/10/25 13:01:29;;;;;;;33.75;6.57;;;;;;;;;;4950764;29;20027;-76
2023/10/25 13:03:56;;;;;;;23.25;6.80;;;;;;;;;;4953608;29;20034;-79
2023/10/25 13:06:22;;;;;;;26.55;6.82;;;;;;;;;;4952172;29;20512;-76
2023/10/25 13:08:48;;;;;;;24.75;6.65;;;;;;;;;;4951085;29;20042;-79
2023/10/25 13:11:15;;;;;;;29.55;7.18;;;;;;;;;;4950459;28;20033;-77
2023/10/25 13:13:41;;;;;;;29.13;7.55;;;;;;;;;;4953559;29;20098;-78
2023/10/25 13:16:07;;;;;;;21.85;6.72;;;;;;;;;;4931612;29;20474;-78
2023/10/25 13:18:33;;;;;;;20.33;6.00;;;;;;;;;;4911973;29;20156;-78
2023/10/25 13:20:59;;;;;;;24.65;7.95;;;;;;;;;;4954089;29;20065;-78
2023/10/25 13:23:28;;;;;;;23.23;7.38;;;;;;;;;;4937157;29;20490;-79
2023/10/25 13:25:55;;;;;;;17.63;6.63;;;;;;;;;;4953765;29;20042;-76
2023/10/25 13:28:21;;;;;;;28.88;7.72;;;;;;;;;;4953878;29;20031;-76
2023/10/25 13:30:47;;;;;;;25.00;7.70;;;;;;;;;;4953681;29;20058;-78
2023/10/25 13:33:14;;;;;;;20.85;6.18;;;;;;;;;;4954225;29;20106;-77
2023/10/25 13:35:40;;;;;;;18.15;6.18;;;;;;;;;;4953692;29;20441;-78
2023/10/25 13:38:05;;;;;;;31.67;7.30;;;;;;;;;;4936803;29;20126;-77
2023/10/25 13:40:33;;;;;;;23.88;6.93;;;;;;;;;;4954106;29;20429;-78
2023/10/25 13:42:59;;;;;;;23.23;6.80;;;;;;;;;;4953422;29;20051;-78
2023/10/25 13:45:25;;;;;;;21.27;8.18;;;;;;;;;;4953323;29;20066;-78
2023/10/25 13:47:50;;;;;;;23.00;7.38;;;;;;;;;;4952891;29;20019;-78
2023/10/25 13:50:18;;;;;;;27.30;7.63;;;;;;;;;;4935812;29;20110;-77
2023/10/25 13:52:44;;;;;;;24.92;7.28;;;;;;;;;;4930854;29;20448;-76
2023/10/25 13:55:13;;;;;;;25.92;7.93;;;;;;;;;;4953691;29;20038;-79
2023/10/25 13:57:39;;;;;;;26.60;7.65;;;;;;;;;;4925375;29;20390;-79
2023/10/25 14:00:07;;;;;;;27.05;8.10;;;;;;;;;;4936430;28;20042;-79
2023/10/25 14:02:40;;;;;;;23.02;7.13;;;;;;;;;;4954042;29;20544;-79
2023/10/25 14:05:06;;;;;;;24.30;6.93;;;;;;;;;;4906136;29;20039;-80
2023/10/25 14:07:33;;;;;;;20.23;6.75;;;;;;;;;;4937929;29;20035;-80
2023/10/25 14:09:59;;;;;;;26.02;7.63;;;;;;;;;;4934080;28;20467;-75
2023/10/25 14:12:25;;;;;;;22.98;7.70;;;;;;;;;;4952658;29;20509;-75
2023/10/25 14:14:53;;;;;;;23.70;6.93;;;;;;;;;;4935804;29;20075;-80
2023/10/25 14:17:18;;;;;;;17.50;6.07;;;;;;;;;;4936233;29;20027;-79
2023/10/25 14:19:44;;;;;;;18.50;6.38;;;;;;;;;;4935835;29;20092;-78
2023/10/25 14:22:13;;;;;;;18.73;6.22;;;;;;;;;;4952996;29;20026;-77
2023/10/25 14:24:39;;;;;;;19.92;6.65;;;;;;;;;;4933237;29;20109;-80
2023/10/25 14:27:05;;;;;;;21.15;7.72;;;;;;;;;;4919819;29;20047;-80
2023/10/25 14:29:32;;;;;;;27.85;8.52;;;;;;;;;;4950884;29;20058;-79
2023/10/25 14:31:59;;;;;;;24.77;7.63;;;;;;;;;;4952683;28;20409;-79